Time;durP1;ratioP1;P1;durP2;ratioP2;P2;SDS_P1;SDS_P2;PMS_P1;PMS_P2;Temp;Humidity;BMP_temperature;BMP_pressure;BME280_temperature;BME280_humidity;BME280_pressure;Samples;Min_cycle;Max_cycle;Signal;HPM_P1;HPM_P2
2023/03/27 00:00:19;;;;;;;;;;;;;;;19.38;61.65;97492.59;2082982;28;19939;-58
2023/03/27 00:01:20;;;;;;;;;;;;;;;19.35;61.82;97493.06;2072677;28;19928;-55
2023/03/27 00:02:21;;;;;;;;;;;;;;;19.33;61.72;97492.50;2064810;28;20019;-57
2023/03/27 00:03:25;;;;;;;;;;;;;;;19.32;61.78;97490.88;2074816;28;19939;-57
2023/03/27 00:04:27;;;;;;;;;;;;;;;19.33;61.75;97475.53;2072471;28;19936;-55
2023/03/27 00:05:28;;;;;;;;;;;;;;;19.32;61.70;97482.81;2076945;28;19928;-55
2023/03/27 00:06:33;;;;;;;;;;;;;;;19.33;61.79;97483.63;2076719;28;20322;-55
2023/03/27 00:07:35;;;;;;;;;;;;;;;19.32;61.71;97487.38;2082793;28;19932;-57
2023/03/27 00:08:37;;;;;;;;;;;;;;;19.32;61.80;97482.00;2082158;28;19935;-56
2023/03/27 00:09:38;;;;;;;;;;;;;;;19.32;61.98;97482.81;2077535;28;20008;-54
2023/03/27 00:10:39;;;;;;;;;;;;;;;19.31;61.96;97475.78;2072663;28;19928;-56
2023/03/27 00:11:40;;;;;;;;;;;;;;;19.29;61.64;97482.47;2077563;28;19982;-57
2023/03/27 00:12:43;;;;;;;;;;;;;;;19.28;61.86;97475.44;2076617;28;19932;-53
2023/03/27 00:13:44;;;;;;;;;;;;;;;19.29;61.84;97480.59;2076813;28;19932;-55
2023/03/27 00:14:45;;;;;;;;;;;;;;;19.30;61.92;97495.66;2080976;28;19928;-57
2023/03/27 00:15:46;;;;;;;;;;;;;;;19.29;61.96;97483.28;2081803;28;19982;-56
2023/03/27 00:16:47;;;;;;;;;;;;;;;19.28;61.69;97495.09;2084600;28;19939;-55
2023/03/27 00:17:50;;;;;;;;;;;;;;;19.29;61.66;97482.47;2081580;28;19936;-55
2023/03/27 00:18:53;;;;;;;;;;;;;;;19.28;61.83;97495.09;2084496;28;19925;-56
2023/03/27 00:19:54;;;;;;;;;;;;;;;19.28;61.52;97481.66;2084427;28;20016;-55
2023/03/27 00:20:56;;;;;;;;;;;;;;;19.27;61.70;97489.94;2083520;28;19928;-57
2023/03/27 00:21:57;;;;;;;;;;;;;;;19.25;62.07;97478.59;2077404;28;19975;-54
2023/03/27 00:22:57;;;;;;;;;;;;;;;19.24;61.97;97487.72;2084677;28;19973;-54
2023/03/27 00:23:59;;;;;;;;;;;;;;;19.22;62.10;97487.94;2081201;28;19932;-57
2023/03/27 00:25:00;;;;;;;;;;;;;;;19.22;62.01;97479.88;2086460;28;22062;-59
2023/03/27 00:26:01;;;;;;;;;;;;;;;19.23;62.07;97484.22;2085908;28;19928;-54
2023/03/27 00:27:02;;;;;;;;;;;;;;;19.22;61.78;97482.56;2080401;28;19936;-56
2023/03/27 00:28:03;;;;;;;;;;;;;;;19.24;61.79;97495.78;2082390;28;19939;-56
2023/03/27 00:29:04;;;;;;;;;;;;;;;19.23;61.84;97473.47;2079700;28;19936;-56
2023/03/27 00:30:06;;;;;;;;;;;;;;;19.19;61.83;97477.66;2086743;28;19942;-57
2023/03/27 00:31:09;;;;;;;;;;;;;;;19.20;61.67;97474.75;2083079;28;19932;-55
2023/03/27 00:32:10;;;;;;;;;;;;;;;19.24;61.71;97471.59;2085292;28;19929;-55
2023/03/27 00:33:11;;;;;;;;;;;;;;;19.20;61.70;97473.94;2083483;27;19932;-57
2023/03/27 00:34:14;;;;;;;;;;;;;;;19.25;61.59;97475.91;2085494;28;19932;-56
2023/03/27 00:35:15;;;;;;;;;;;;;;;19.21;61.62;97478.25;2082411;28;20077;-55
2023/03/27 00:36:16;;;;;;;;;;;;;;;19.20;61.58;97479.31;2082059;28;20787;-56
2023/03/27 00:37:17;;;;;;;;;;;;;;;19.17;61.80;97479.78;2081127;28;19932;-57
2023/03/27 00:38:18;;;;;;;;;;;;;;;19.17;61.62;97485.16;2084070;28;20345;-55
2023/03/27 00:39:19;;;;;;;;;;;;;;;19.18;61.78;97473.34;2084891;28;20027;-55
2023/03/27 00:40:20;;;;;;;;;;;;;;;19.17;61.69;97485.16;2085529;28;21202;-58
2023/03/27 00:41:21;;;;;;;;;;;;;;;19.17;62.00;97485.16;2084258;28;19933;-55
2023/03/27 00:42:23;;;;;;;;;;;;;;;19.17;61.87;97480.59;2086018;28;20005;-57
2023/03/27 00:43:25;;;;;;;;;;;;;;;19.19;61.58;97473.13;2085165;28;20051;-56
2023/03/27 00:44:33;;;;;;;;;;;;;;;19.16;61.89;97470.88;2082989;28;19929;-56
2023/03/27 00:45:33;;;;;;;;;;;;;;;19.19;61.91;97472.28;2081530;28;19933;-56
2023/03/27 00:46:40;;;;;;;;;;;;;;;19.18;61.87;97459.91;2077090;28;20051;-54
2023/03/27 00:47:41;;;;;;;;;;;;;;;19.16;61.84;97470.88;2075550;28;19959;-55
2023/03/27 00:48:45;;;;;;;;;;;;;;;19.14;61.89;97456.06;2074489;28;20021;-56
2023/03/27 00:49:49;;;;;;;;;;;;;;;19.15;61.67;97455.00;2072055;28;22347;-58
2023/03/27 00:50:50;;;;;;;;;;;;;;;19.14;61.58;97456.88;2073853;28;19937;-55
2023/03/27 00:51:52;;;;;;;;;;;;;;;19.13;61.55;97454.41;2074623;28;19928;-57
2023/03/27 00:52:55;;;;;;;;;;;;;;;19.13;61.73;97451.72;2070265;28;20127;-56
2023/03/27 00:53:57;;;;;;;;;;;;;;;19.13;61.71;97449.06;2076818;28;20598;-55
2023/03/27 00:54:59;;;;;;;;;;;;;;;19.16;61.78;97445.88;2074927;28;20788;-56
2023/03/27 00:56:02;;;;;;;;;;;;;;;19.13;61.63;97449.06;2071927;28;19925;-56
2023/03/27 00:57:05;;;;;;;;;;;;;;;19.12;61.99;97445.56;2074300;28;20464;-54
2023/03/27 00:58:08;;;;;;;;;;;;;;;19.09;61.75;97442.53;2068525;28;20022;-54
2023/03/27 00:59:11;;;;;;;;;;;;;;;19.07;61.73;97441.94;2071270;28;19932;-55
2023/03/27 01:00:15;;;;;;;;;;;;;;;19.06;61.91;97437.63;2075234;28;20064;-55
2023/03/27 01:01:18;;;;;;;;;;;;;;;19.10;61.92;97441.47;2078856;28;19933;-55
2023/03/27 01:02:20;;;;;;;;;;;;;;;19.09;61.69;97429.09;2073229;28;19932;-55
2023/03/27 01:03:23;;;;;;;;;;;;;;;19.08;61.98;97438.19;2071951;28;19933;-57
2023/03/27 01:04:24;;;;;;;;;;;;;;;19.09;61.67;97437.97;2071578;28;19932;-56
2023/03/27 01:05:26;;;;;;;;;;;;;;;19.09;61.94;97439.84;2077744;28;20009;-55
2023/03/27 01:06:28;;;;;;;;;;;;;;;19.12;61.63;97432.13;2074230;28;19940;-62
2023/03/27 01:07:29;;;;;;;;;;;;;;;19.08;61.92;97436.31;2077075;28;19975;-57
2023/03/27 01:08:33;;;;;;;;;;;;;;;19.08;61.77;97430.94;2078454;28;19932;-58
2023/03/27 01:09:33;;;;;;;;;;;;;;;19.07;61.51;97437.38;2078879;28;19933;-55
2023/03/27 01:10:40;;;;;;;;;;;;;;;19.06;61.79;97432.25;2079531;28;19929;-54
2023/03/27 01:11:48;;;;;;;;;;;;;;;19.06;61.93;97429.56;2074399;28;19973;-54
2023/03/27 01:12:56;;;;;;;;;;;;;;;19.04;61.90;97429.78;2071046;28;19940;-54
2023/03/27 01:14:04;;;;;;;;;;;;;;;19.07;61.63;97431.19;2072612;28;19932;-55
2023/03/27 01:15:16;;;;;;;;;;;;;;;19.05;61.74;97420.66;2073397;28;19964;-56
2023/03/27 01:16:21;;;;;;;;;;;;;;;19.04;61.81;97426.28;2072457;28;19928;-57
2023/03/27 01:17:29;;;;;;;;;;;;;;;19.01;61.66;97427.56;2074900;28;19933;-55
2023/03/27 01:18:37;;;;;;;;;;;;;;;18.99;61.95;97432.34;2073044;28;20119;-55
2023/03/27 01:19:50;;;;;;;;;;;;;;;19.01;62.02;97432.13;2075099;28;19999;-53
2023/03/27 01:21:06;;;;;;;;;;;;;;;19.01;61.78;97429.44;2069246;28;19978;-55
2023/03/27 01:22:25;;;;;;;;;;;;;;;19.00;61.89;97417.03;2068249;28;19928;-55
2023/03/27 01:23:47;;;;;;;;;;;;;;;18.99;61.71;97426.97;2078917;28;19960;-53
2023/03/27 01:25:07;;;;;;;;;;;;;;;18.98;61.62;97436.91;2041099;28;21516;-55
2023/03/27 01:26:14;;;;;;;;;;;;;;;18.98;61.86;97436.91;2084510;28;19928;-55
2023/03/27 01:27:18;;;;;;;;;;;;;;;19.00;61.70;97430.47;2076314;28;20078;-54
2023/03/27 01:28:25;;;;;;;;;;;;;;;19.01;61.68;97432.13;2069474;28;19933;-56
2023/03/27 01:29:36;;;;;;;;;;;;;;;18.98;61.73;97431.53;2066704;28;19924;-56
2023/03/27 01:30:38;;;;;;;;;;;;;;;19.00;61.62;97425.09;2059463;28;19936;-54
2023/03/27 01:31:54;;;;;;;;;;;;;;;18.98;61.57;97428.03;2065923;28;20910;-53
2023/03/27 01:33:03;;;;;;;;;;;;;;;18.98;61.48;97423.47;2065603;28;20002;-55
2023/03/27 01:34:24;;;;;;;;;;;;;;;18.97;61.65;97427.22;2067267;28;19932;-54
2023/03/27 01:35:35;;;;;;;;;;;;;;;18.98;61.45;97417.28;2066955;28;20541;-55
2023/03/27 01:36:45;;;;;;;;;;;;;;;18.96;61.61;97427.44;2065515;28;19932;-55
2023/03/27 01:38:01;;;;;;;;;;;;;;;18.94;61.95;97416.97;2068058;28;20248;-58
2023/03/27 01:39:22;;;;;;;;;;;;;;;18.95;61.66;97426.63;2067804;28;19932;-55
2023/03/27 01:40:26;;;;;;;;;;;;;;;18.95;61.64;97429.31;2075399;28;19936;-56
2023/03/27 01:41:30;;;;;;;;;;;;;;;18.96;61.61;97430.13;2078084;28;20029;-64
2023/03/27 01:42:35;;;;;;;;;;;;;;;18.98;61.62;97425.34;2077063;28;19928;-56
2023/03/27 01:43:40;;;;;;;;;;;;;;;18.97;61.58;97427.22;2074595;28;19933;-56
2023/03/27 01:44:45;;;;;;;;;;;;;;;18.94;61.66;97416.97;2073752;28;20402;-55
2023/03/27 01:45:49;;;;;;;;;;;;;;;18.93;61.61;97423.38;2073793;28;19932;-55
2023/03/27 01:46:54;;;;;;;;;;;;;;;18.95;62.00;97426.63;2075088;28;21432;-57
2023/03/27 01:47:57;;;;;;;;;;;;;;;18.97;61.72;97426.38;2075275;28;20955;-52
2023/03/27 01:49:00;;;;;;;;;;;;;;;18.94;61.62;97424.16;2076762;28;20022;-55
2023/03/27 01:50:05;;;;;;;;;;;;;;;18.94;61.60;97422.34;2077439;28;19985;-54
2023/03/27 01:51:10;;;;;;;;;;;;;;;18.92;61.62;97432.50;2076142;28;19924;-54
2023/03/27 01:52:13;;;;;;;;;;;;;;;18.92;61.90;97429.00;2077232;28;19963;-53
2023/03/27 01:53:18;;;;;;;;;;;;;;;18.90;61.87;97426.53;2076810;28;19936;-56
2023/03/27 01:54:23;;;;;;;;;;;;;;;18.91;61.67;97428.16;2077827;28;20017;-55
2023/03/27 01:55:26;;;;;;;;;;;;;;;18.91;61.64;97424.66;2077626;28;19939;-58
2023/03/27 01:56:31;;;;;;;;;;;;;;;18.93;61.72;97428.75;2080983;28;19978;-62
2023/03/27 01:57:36;;;;;;;;;;;;;;;18.92;61.89;97427.13;2074402;28;20399;-57
2023/03/27 01:58:40;;;;;;;;;;;;;;;18.91;61.61;97432.72;2076291;28;19935;-55
2023/03/27 01:59:44;;;;;;;;;;;;;;;18.88;61.75;97428.63;2077155;28;19932;-57
2023/03/27 02:00:49;;;;;;;;;;;;;;;18.93;61.66;97439.47;2076986;28;19932;-56
2023/03/27 02:01:53;;;;;;;;;;;;;;;18.92;61.42;97431.69;2074449;28;19933;-57
2023/03/27 02:02:56;;;;;;;;;;;;;;;18.91;61.54;97427.34;2074614;28;21759;-55
2023/03/27 02:04:00;;;;;;;;;;;;;;;18.88;61.77;97428.63;2074674;28;21413;-57
2023/03/27 02:05:05;;;;;;;;;;;;;;;18.88;61.64;97428.63;2076815;28;21149;-56
2023/03/27 02:06:09;;;;;;;;;;;;;;;18.87;61.83;97431.56;2076898;28;19929;-56
2023/03/27 02:07:11;;;;;;;;;;;;;;;18.88;61.76;97441.25;2071718;28;19954;-57
2023/03/27 02:08:16;;;;;;;;;;;;;;;18.89;61.57;97427.59;2075006;28;19939;-56
2023/03/27 02:09:19;;;;;;;;;;;;;;;18.88;62.00;97423.25;2074119;28;19970;-59
2023/03/27 02:10:25;;;;;;;;;;;;;;;18.87;61.67;97428.88;2076717;28;19933;-56
2023/03/27 02:11:29;;;;;;;;;;;;;;;18.87;61.54;97424.31;2072983;28;19977;-57
2023/03/27 02:12:31;;;;;;;;;;;;;;;18.89;61.70;97424.91;2079410;28;19939;-56
2023/03/27 02:13:36;;;;;;;;;;;;;;;18.87;61.66;97421.63;2073673;28;19974;-58
2023/03/27 02:14:38;;;;;;;;;;;;;;;18.88;61.69;97422.44;2069989;28;19960;-55
2023/03/27 02:15:41;;;;;;;;;;;;;;;18.85;61.58;97421.03;2073443;28;20403;-58
2023/03/27 02:16:45;;;;;;;;;;;;;;;18.85;61.46;97418.34;2072888;28;20434;-58
2023/03/27 02:17:47;;;;;;;;;;;;;;;18.83;61.61;97425.81;2062891;28;19961;-56
2023/03/27 02:18:50;;;;;;;;;;;;;;;18.85;61.69;97421.03;2074585;28;19955;-57
2023/03/27 02:19:55;;;;;;;;;;;;;;;18.85;61.88;97418.34;2078081;28;19928;-57
2023/03/27 02:20:55;;;;;;;;;;;;;;;18.83;61.68;97419.63;2083020;28;19943;-52
2023/03/27 02:21:56;;;;;;;;;;;;;;;18.85;61.80;97421.03;2082416;28;19933;-58
2023/03/27 02:22:59;;;;;;;;;;;;;;;18.82;61.66;97418.81;2084647;28;19929;-57
2023/03/27 02:24:02;;;;;;;;;;;;;;;18.81;61.84;97427.13;2084633;28;19928;-58
2023/03/27 02:25:04;;;;;;;;;;;;;;;18.78;61.69;97431.09;2086166;28;20013;-55
2023/03/27 02:26:09;;;;;;;;;;;;;;;18.80;61.69;97425.47;2085815;28;19947;-56
2023/03/27 02:27:14;;;;;;;;;;;;;;;18.80;61.79;97426.28;2083618;28;20578;-55
2023/03/27 02:28:24;;;;;;;;;;;;;;;18.80;61.55;97437.03;2084771;28;20673;-58
2023/03/27 02:29:38;;;;;;;;;;;;;;;18.78;61.86;97439.16;2079853;28;19940;-55
2023/03/27 02:30:41;;;;;;;;;;;;;;;18.81;61.60;97440.56;2084031;28;19929;-57
2023/03/27 02:31:52;;;;;;;;;;;;;;;18.78;61.74;97439.16;2081424;28;20438;-54
2023/03/27 02:32:57;;;;;;;;;;;;;;;18.77;61.72;97439.38;2080990;28;19929;-55
2023/03/27 02:34:19;;;;;;;;;;;;;;;18.74;61.60;97436.09;2083762;28;19932;-59
2023/03/27 02:35:28;;;;;;;;;;;;;;;18.77;61.89;97434.81;2074794;28;19929;-58
2023/03/27 02:36:33;;;;;;;;;;;;;;;18.79;61.49;97430.03;2080892;28;19929;-61
2023/03/27 02:37:40;;;;;;;;;;;;;;;18.79;61.84;97429.22;2082084;28;21006;-61
2023/03/27 02:38:45;;;;;;;;;;;;;;;18.76;61.52;97435.88;2081206;28;20325;-57
2023/03/27 02:39:51;;;;;;;;;;;;;;;18.75;61.55;97428.88;2081689;28;19937;-56
2023/03/27 02:40:55;;;;;;;;;;;;;;;18.75;61.75;97428.88;2080539;28;19935;-59
2023/03/27 02:42:01;;;;;;;;;;;;;;;18.77;61.62;97432.13;2082792;28;19932;-59
2023/03/27 02:43:06;;;;;;;;;;;;;;;18.77;61.48;97424.06;2084440;28;19972;-60
2023/03/27 02:44:10;;;;;;;;;;;;;;;18.76;61.62;97430.50;2085990;28;19928;-59
2023/03/27 02:45:16;;;;;;;;;;;;;;;18.75;61.52;97423.50;2073825;28;20391;-61
2023/03/27 02:46:20;;;;;;;;;;;;;;;18.77;61.63;97415.19;2073718;28;20304;-52
2023/03/27 02:47:24;;;;;;;;;;;;;;;18.77;61.57;97421.38;2071039;28;19940;-55
2023/03/27 02:48:28;;;;;;;;;;;;;;;18.75;61.76;97429.69;2078215;28;19939;-53
2023/03/27 02:49:33;;;;;;;;;;;;;;;18.74;61.45;97411.09;2072570;28;19932;-60
2023/03/27 02:50:37;;;;;;;;;;;;;;;18.72;61.54;97418.53;2075474;28;20055;-55
2023/03/27 02:51:40;;;;;;;;;;;;;;;18.73;61.56;97415.63;2074855;28;20043;-60
2023/03/27 02:52:42;;;;;;;;;;;;;;;18.71;61.66;97415.03;2073001;28;19932;-62
2023/03/27 02:53:47;;;;;;;;;;;;;;;18.73;61.45;97418.31;2075786;28;20436;-54
2023/03/27 02:54:51;;;;;;;;;;;;;;;18.70;61.83;97415.28;2073297;28;19968;-55
2023/03/27 02:55:54;;;;;;;;;;;;;;;18.70;61.68;97402.69;2067100;28;19932;-56
2023/03/27 02:56:56;;;;;;;;;;;;;;;18.72;61.62;97402.44;2071834;28;19936;-57
2023/03/27 02:58:01;;;;;;;;;;;;;;;18.75;61.32;97412.75;2076383;28;19935;-58
2023/03/27 02:59:04;;;;;;;;;;;;;;;18.76;61.69;97409.00;2079294;28;20338;-57
2023/03/27 03:00:17;;;;;;;;;;;;;;;18.75;61.51;97404.69;2071882;28;20024;-53
2023/03/27 03:01:18;;;;;;;;;;;;;;;18.73;61.58;97404.06;2073528;28;19951;-56
2023/03/27 03:02:23;;;;;;;;;;;;;;;18.69;61.43;97401.06;2072063;28;20019;-55
2023/03/27 03:03:26;;;;;;;;;;;;;;;18.72;61.65;97394.38;2075970;28;19985;-55
2023/03/27 03:04:29;;;;;;;;;;;;;;;18.71;61.77;97398.94;2075563;28;19929;-55
2023/03/27 03:05:30;;;;;;;;;;;;;;;18.66;61.58;97392.63;2077901;28;19929;-57
2023/03/27 03:06:32;;;;;;;;;;;;;;;18.70;61.70;97391.94;2072921;28;20024;-56
2023/03/27 03:07:33;;;;;;;;;;;;;;;18.68;61.43;97394.03;2072303;28;19994;-56
2023/03/27 03:08:37;;;;;;;;;;;;;;;18.67;61.72;97389.72;2072926;28;19971;-57
2023/03/27 03:09:38;;;;;;;;;;;;;;;18.66;61.68;97388.06;2073361;28;20383;-56
2023/03/27 03:10:43;;;;;;;;;;;;;;;18.66;61.63;97392.63;2078082;28;20581;-56
2023/03/27 03:11:45;;;;;;;;;;;;;;;18.66;61.54;97398.00;2072937;28;20445;-56
2023/03/27 03:12:46;;;;;;;;;;;;;;;18.65;61.65;97382.94;2069263;28;19972;-57
2023/03/27 03:13:48;;;;;;;;;;;;;;;18.64;61.57;97389.38;2075903;28;20895;-56
2023/03/27 03:14:50;;;;;;;;;;;;;;;18.64;61.66;97389.38;2074969;28;19940;-57
2023/03/27 03:15:51;;;;;;;;;;;;;;;18.66;61.44;97387.25;2075548;28;19936;-57
2023/03/27 03:16:52;;;;;;;;;;;;;;;18.66;61.68;97388.06;2076369;28;19928;-56
2023/03/27 03:17:53;;;;;;;;;;;;;;;18.67;61.47;97388.91;2072016;28;20070;-56
2023/03/27 03:18:55;;;;;;;;;;;;;;;18.65;61.43;97391.00;2071313;28;19939;-54
2023/03/27 03:19:56;;;;;;;;;;;;;;;18.64;61.59;97389.38;2078342;28;19958;-56
2023/03/27 03:20:57;;;;;;;;;;;;;;;18.65;61.72;97391.81;2078337;28;21076;-57
2023/03/27 03:21:57;;;;;;;;;;;;;;;18.64;61.80;97389.38;2073354;28;19968;-58
2023/03/27 03:22:59;;;;;;;;;;;;;;;18.65;61.53;97394.50;2073037;28;19948;-56
2023/03/27 03:24:00;;;;;;;;;;;;;;;18.68;61.10;97395.91;2079862;28;19928;-56
2023/03/27 03:25:01;;;;;;;;;;;;;;;18.64;61.65;97400.94;2069449;28;20440;-57
2023/03/27 03:26:02;;;;;;;;;;;;;;;18.65;61.47;97391.00;2072808;28;19928;-57
2023/03/27 03:27:04;;;;;;;;;;;;;;;18.66;61.40;97390.75;2072572;28;20028;-57
2023/03/27 03:28:07;;;;;;;;;;;;;;;18.63;61.48;97390.41;2075407;28;19940;-57
2023/03/27 03:29:09;;;;;;;;;;;;;;;18.65;61.52;97391.81;2076538;28;20021;-57
2023/03/27 03:30:11;;;;;;;;;;;;;;;18.68;61.44;97385.16;2076258;28;20417;-57
2023/03/27 03:31:12;;;;;;;;;;;;;;;18.68;61.53;97395.91;2073640;28;19946;-57
2023/03/27 03:32:12;;;;;;;;;;;;;;;18.68;61.51;97390.53;2074263;28;19936;-57
2023/03/27 03:33:14;;;;;;;;;;;;;;;18.68;61.44;97390.53;2077552;28;20073;-54
2023/03/27 03:34:17;;;;;;;;;;;;;;;18.69;61.43;97381.41;2074271;28;19929;-56
2023/03/27 03:35:18;;;;;;;;;;;;;;;18.71;61.40;97384.69;2073284;28;19955;-56
2023/03/27 03:36:19;;;;;;;;;;;;;;;18.70;61.03;97383.88;2075656;28;20636;-58
2023/03/27 03:37:20;;;;;;;;;;;;;;;18.70;61.32;97388.44;2072816;28;20024;-55
2023/03/27 03:38:25;;;;;;;;;;;;;;;18.72;61.07;97386.31;2076059;28;19932;-55
2023/03/27 03:39:25;;;;;;;;;;;;;;;18.74;61.02;97387.75;2076770;28;20015;-51
2023/03/27 03:40:27;;;;;;;;;;;;;;;18.78;60.98;97384.59;2074929;28;20651;-58
2023/03/27 03:41:27;;;;;;;;;;;;;;;18.82;60.77;97388.44;2075178;28;19933;-56
2023/03/27 03:42:29;;;;;;;;;;;;;;;18.84;60.67;97394.41;2077689;28;19929;-54
2023/03/27 03:43:30;;;;;;;;;;;;;;;18.88;60.50;97382.94;2073358;28;19986;-57
2023/03/27 03:44:33;;;;;;;;;;;;;;;18.92;60.68;97389.50;2075983;28;19928;-55
2023/03/27 03:45:33;;;;;;;;;;;;;;;18.95;60.77;97386.34;2079211;28;19977;-56
2023/03/27 03:46:35;;;;;;;;;;;;;;;18.99;60.25;97381.28;2075969;28;20014;-53
2023/03/27 03:47:36;;;;;;;;;;;;;;;19.03;60.61;97381.63;2074997;28;20356;-55
2023/03/27 03:48:37;;;;;;;;;;;;;;;19.04;60.46;97373.34;2074220;28;19928;-57
2023/03/27 03:49:37;;;;;;;;;;;;;;;19.06;60.48;97376.63;2076598;28;20350;-57
2023/03/27 03:50:39;;;;;;;;;;;;;;;19.10;60.38;97379.66;2075636;28;19928;-54
2023/03/27 03:51:39;;;;;;;;;;;;;;;19.13;60.28;97371.09;2077581;28;20399;-57
2023/03/27 03:52:42;;;;;;;;;;;;;;;19.17;60.30;97383.03;2072942;28;19933;-58
2023/03/27 03:53:43;;;;;;;;;;;;;;;19.17;60.33;97383.84;2073931;28;19933;-57
2023/03/27 03:54:44;;;;;;;;;;;;;;;19.21;60.28;97384.19;2069545;28;19956;-53
2023/03/27 03:55:45;;;;;;;;;;;;;;;19.22;60.46;97382.31;2074525;28;19932;-54
2023/03/27 03:56:47;;;;;;;;;;;;;;;19.23;60.63;97382.06;2076364;28;19932;-53
2023/03/27 03:57:49;;;;;;;;;;;;;;;19.26;60.13;97381.59;2076568;28;20047;-58
2023/03/27 03:58:50;;;;;;;;;;;;;;;19.27;60.23;97372.47;2080011;28;19936;-50
2023/03/27 03:59:53;;;;;;;;;;;;;;;19.29;60.23;97377.63;2075113;28;19932;-57
2023/03/27 04:00:53;;;;;;;;;;;;;;;19.30;60.31;97376.56;2074114;28;19940;-53
2023/03/27 04:01:55;;;;;;;;;;;;;;;19.32;60.13;97375.25;2078049;28;19929;-56
2023/03/27 04:02:55;;;;;;;;;;;;;;;19.34;60.45;97373.16;2071987;28;19932;-55
2023/03/27 04:03:57;;;;;;;;;;;;;;;19.36;60.19;97379.13;2075897;28;19939;-56
2023/03/27 04:04:58;;;;;;;;;;;;;;;19.36;60.44;97381.81;2068637;28;20036;-55
2023/03/27 04:05:59;;;;;;;;;;;;;;;19.38;60.01;97384.25;2071476;28;19994;-56
2023/03/27 04:07:00;;;;;;;;;;;;;;;19.40;60.44;97382.94;2064722;28;19940;-59
2023/03/27 04:08:01;;;;;;;;;;;;;;;19.42;60.41;97388.09;2065107;28;19933;-53
2023/03/27 04:09:02;;;;;;;;;;;;;;;19.45;60.31;97374.19;2067966;28;20014;-55
2023/03/27 04:10:04;;;;;;;;;;;;;;;19.47;60.24;97372.03;2069785;28;20822;-57
2023/03/27 04:11:04;;;;;;;;;;;;;;;19.49;60.05;97364.56;2067497;28;20050;-56
2023/03/27 04:12:06;;;;;;;;;;;;;;;19.50;60.09;97370.75;2063483;28;20433;-57
2023/03/27 04:13:07;;;;;;;;;;;;;;;19.51;60.25;97370.53;2064308;28;19929;-57
2023/03/27 04:14:08;;;;;;;;;;;;;;;19.53;60.12;97372.97;2069200;28;20309;-57
2023/03/27 04:15:10;;;;;;;;;;;;;;;19.54;59.89;97371.91;2073148;28;19978;-56
2023/03/27 04:16:11;;;;;;;;;;;;;;;19.54;60.29;97367.34;2074147;28;20359;-57
2023/03/27 04:17:12;;;;;;;;;;;;;;;19.56;59.93;97370.63;2071262;28;19925;-56
2023/03/27 04:18:15;;;;;;;;;;;;;;;19.57;60.21;97366.88;2073446;28;19929;-56
2023/03/27 04:19:17;;;;;;;;;;;;;;;19.59;60.03;97367.44;2071557;28;20602;-56
2023/03/27 04:20:18;;;;;;;;;;;;;;;19.60;60.16;97363.69;2073679;28;19944;-56
2023/03/27 04:21:19;;;;;;;;;;;;;;;19.60;60.12;97371.75;2073866;28;19978;-52
2023/03/27 04:22:21;;;;;;;;;;;;;;;19.62;60.08;97368.84;2071987;28;19932;-55
2023/03/27 04:23:22;;;;;;;;;;;;;;;19.62;60.06;97369.66;2074100;28;20835;-57
2023/03/27 04:24:23;;;;;;;;;;;;;;;19.64;59.68;97380.19;2076597;28;19960;-56
2023/03/27 04:25:23;;;;;;;;;;;;;;;19.64;60.09;97377.50;2074070;28;20347;-56
2023/03/27 04:26:26;;;;;;;;;;;;;;;19.66;60.08;97386.16;2072358;28;20067;-56
2023/03/27 04:27:29;;;;;;;;;;;;;;;19.66;60.01;97386.16;2072243;28;19929;-57
2023/03/27 04:28:33;;;;;;;;;;;;;;;19.67;59.88;97386.97;2076374;28;19929;-56
2023/03/27 04:29:33;;;;;;;;;;;;;;;19.67;59.84;97398.56;2081955;28;19933;-57
2023/03/27 04:30:37;;;;;;;;;;;;;;;19.68;59.80;97394.00;2087192;28;19928;-56
2023/03/27 04:31:38;;;;;;;;;;;;;;;19.68;59.99;97410.13;2083189;28;19929;-57
2023/03/27 04:32:39;;;;;;;;;;;;;;;19.68;59.69;97405.56;2082795;28;20386;-57
2023/03/27 04:33:45;;;;;;;;;;;;;;;19.68;59.96;97416.31;2081820;28;19977;-58
2023/03/27 04:34:48;;;;;;;;;;;;;;;19.68;59.73;97410.94;2084814;28;19999;-54
2023/03/27 04:35:49;;;;;;;;;;;;;;;19.69;59.97;97407.19;2082980;28;19966;-57
2023/03/27 04:36:50;;;;;;;;;;;;;;;19.70;59.76;97408.84;2082281;28;19935;-56
2023/03/27 04:37:51;;;;;;;;;;;;;;;19.71;59.89;97405.09;2081424;28;19938;-57
2023/03/27 04:38:53;;;;;;;;;;;;;;;19.72;59.78;97411.28;2083670;28;19940;-56
2023/03/27 04:39:53;;;;;;;;;;;;;;;19.71;59.87;97410.47;2079990;28;19928;-56
2023/03/27 04:40:55;;;;;;;;;;;;;;;19.71;59.72;97405.09;2083858;28;19933;-55
2023/03/27 04:41:57;;;;;;;;;;;;;;;19.72;59.96;97403.22;2080287;28;19972;-57
2023/03/27 04:42:58;;;;;;;;;;;;;;;19.72;59.49;97405.91;2081033;28;19936;-57
2023/03/27 04:43:59;;;;;;;;;;;;;;;19.73;59.63;97410.25;2084791;28;20613;-54
2023/03/27 04:45:01;;;;;;;;;;;;;;;19.71;59.57;97407.78;2082693;28;19932;-57
2023/03/27 04:46:05;;;;;;;;;;;;;;;19.72;59.73;97414.78;2080859;28;19937;-57
2023/03/27 04:47:06;;;;;;;;;;;;;;;19.73;59.84;97413.75;2074698;28;20002;-56
2023/03/27 04:48:08;;;;;;;;;;;;;;;19.72;59.71;97417.47;2074375;28;20137;-56
2023/03/27 04:49:08;;;;;;;;;;;;;;;19.73;59.81;97421.81;2069958;28;19928;-57
2023/03/27 04:50:10;;;;;;;;;;;;;;;19.73;59.65;97418.31;2075916;28;20371;-56
2023/03/27 04:51:11;;;;;;;;;;;;;;;19.73;59.51;97424.50;2076844;28;20018;-51
2023/03/27 04:52:13;;;;;;;;;;;;;;;19.72;59.70;97428.22;2070857;28;20057;-61
2023/03/27 04:53:13;;;;;;;;;;;;;;;19.74;59.75;97425.31;2074511;28;20547;-58
2023/03/27 04:54:15;;;;;;;;;;;;;;;19.73;59.68;97429.06;2079210;28;19955;-61
2023/03/27 04:55:15;;;;;;;;;;;;;;;19.73;59.57;97424.50;2078162;28;19932;-62
2023/03/27 04:56:17;;;;;;;;;;;;;;;19.73;59.57;97421.00;2073454;28;21914;-60
2023/03/27 04:57:17;;;;;;;;;;;;;;;19.74;59.68;97419.94;2075805;28;19936;-62
2023/03/27 04:58:19;;;;;;;;;;;;;;;19.74;59.60;97418.06;2074563;28;20390;-58
2023/03/27 04:59:21;;;;;;;;;;;;;;;19.75;59.58;97425.09;2075600;28;20002;-58
2023/03/27 05:00:22;;;;;;;;;;;;;;;19.74;59.73;97418.06;2076766;28;24586;-58
2023/03/27 05:01:24;;;;;;;;;;;;;;;19.75;59.67;97421.56;2076825;28;19932;-60
2023/03/27 05:02:26;;;;;;;;;;;;;;;19.73;59.31;97429.88;2077733;28;21540;-55
2023/03/27 05:03:27;;;;;;;;;;;;;;;19.73;59.59;97429.88;2073250;28;19982;-60
2023/03/27 05:04:28;;;;;;;;;;;;;;;19.74;59.56;97436.06;2075000;28;19932;-58
2023/03/27 05:05:29;;;;;;;;;;;;;;;19.75;59.48;97435.00;2072523;28;19933;-57
2023/03/27 05:06:31;;;;;;;;;;;;;;;19.74;59.52;97431.50;2074289;28;20277;-60
2023/03/27 05:07:32;;;;;;;;;;;;;;;19.73;59.19;97435.25;2073213;28;20011;-54
2023/03/27 05:08:33;;;;;;;;;;;;;;;19.75;59.51;97433.16;2073486;28;20382;-60
2023/03/27 05:09:34;;;;;;;;;;;;;;;19.74;59.62;97439.56;2073058;28;19982;-55
2023/03/27 05:10:35;;;;;;;;;;;;;;;19.74;59.56;97441.44;2070086;28;20897;-56
2023/03/27 05:11:36;;;;;;;;;;;;;;;19.74;59.10;97441.44;2070784;28;19933;-49
2023/03/27 05:12:42;;;;;;;;;;;;;;;19.74;59.58;97442.25;2072003;28;21166;-58
2023/03/27 05:13:42;;;;;;;;;;;;;;;19.73;59.59;97439.84;2076438;28;19943;-57
2023/03/27 05:14:44;;;;;;;;;;;;;;;19.72;59.43;97439.00;2076786;28;19928;-59
2023/03/27 05:15:44;;;;;;;;;;;;;;;19.73;59.10;97439.84;2076560;28;20456;-61
2023/03/27 05:16:49;;;;;;;;;;;;;;;19.71;59.61;97440.06;2077313;28;20059;-60
2023/03/27 05:17:53;;;;;;;;;;;;;;;19.71;59.51;97442.75;2073372;28;21162;-55
2023/03/27 05:18:54;;;;;;;;;;;;;;;19.71;59.32;97445.44;2072238;28;19932;-58
2023/03/27 05:19:55;;;;;;;;;;;;;;;19.72;59.50;97446.25;2077582;28;19982;-56
2023/03/27 05:20:57;;;;;;;;;;;;;;;19.72;59.28;97448.94;2074719;28;19933;-57
2023/03/27 05:21:58;;;;;;;;;;;;;;;19.73;59.38;97455.97;2073264;28;20065;-62
2023/03/27 05:22:59;;;;;;;;;;;;;;;19.71;59.48;97456.19;2074951;28;19991;-62
2023/03/27 05:24:00;;;;;;;;;;;;;;;19.71;59.36;97455.38;2072710;28;19974;-57
2023/03/27 05:25:02;;;;;;;;;;;;;;;19.71;59.45;97453.50;2074513;28;19953;-55
2023/03/27 05:26:03;;;;;;;;;;;;;;;19.70;59.20;97459.16;2073994;28;20479;-59
2023/03/27 05:27:05;;;;;;;;;;;;;;;19.70;59.35;97464.53;2073495;28;19932;-61
2023/03/27 05:28:06;;;;;;;;;;;;;;;19.69;59.13;97461.00;2074027;28;19932;-55
2023/03/27 05:29:08;;;;;;;;;;;;;;;19.70;59.55;97469.91;2072167;28;19986;-59